createdAt,value
2018-02-22T00:00:03.996Z,0.00
2018-02-22T00:01:03.874Z,0.00
2018-02-22T00:02:03.803Z,0.00
2018-02-22T00:03:03.711Z,0.00
2018-02-22T00:04:03.631Z,0.00
2018-02-22T00:05:03.542Z,0.00
2018-02-22T00:06:03.524Z,0.00
2018-02-22T00:07:03.374Z,0.00
2018-02-22T00:08:03.298Z,0.00
2018-02-22T00:09:03.206Z,0.00
2018-02-22T00:10:03.131Z,0.00
2018-02-22T00:11:03.040Z,0.00
2018-02-22T00:12:03.057Z,0.00
2018-02-22T00:13:02.869Z,0.00
2018-02-22T00:14:02.800Z,0.00
2018-02-22T00:15:02.705Z,0.00
2018-02-22T00:16:02.698Z,0.00
2018-02-22T00:17:02.536Z,0.00
2018-02-22T00:18:02.480Z,0.00
2018-02-22T00:19:02.363Z,0.00
2018-02-22T00:20:02.393Z,0.00
2018-02-22T00:21:02.210Z,0.00
2018-02-22T00:22:02.132Z,0.00
2018-02-22T00:23:02.035Z,0.00
2018-02-22T00:24:02.010Z,0.00
2018-02-22T00:25:01.864Z,0.00
2018-02-22T00:26:01.791Z,0.00
2018-02-22T00:27:01.699Z,0.00
2018-02-22T00:28:01.623Z,0.00
2018-02-22T00:29:01.530Z,0.00
2018-02-22T00:30:01.458Z,0.00
2018-02-22T00:31:01.364Z,0.00
2018-02-22T00:32:01.324Z,0.00
2018-02-22T00:33:01.195Z,0.00
2018-02-22T00:34:01.121Z,0.00
2018-02-22T00:35:01.028Z,0.00
2018-02-22T00:36:00.959Z,0.00
2018-02-22T00:37:00.863Z,0.00
2018-02-22T00:38:00.782Z,0.00
2018-02-22T00:39:00.691Z,0.00
2018-02-22T00:40:00.616Z,0.00
2018-02-22T00:41:00.525Z,0.00
2018-02-22T00:42:00.446Z,0.00
2018-02-22T00:43:00.356Z,0.00
2018-02-22T00:44:00.279Z,0.00
2018-02-22T00:45:00.185Z,0.00
2018-02-22T00:46:00.114Z,0.00
2018-02-22T00:47:00.021Z,0.00
2018-02-22T00:47:59.949Z,0.00
2018-02-22T00:48:59.852Z,0.00
2018-02-22T00:49:59.778Z,0.00
2018-02-22T00:50:59.683Z,0.00
2018-02-22T00:51:59.608Z,0.00
2018-02-22T00:52:59.517Z,0.00
2018-02-22T00:53:59.440Z,0.00
2018-02-22T00:54:59.348Z,0.00
2018-02-22T00:55:59.275Z,0.00
2018-02-22T00:56:59.180Z,0.00
2018-02-22T00:57:59.103Z,0.00
2018-02-22T00:58:59.014Z,0.00
2018-02-22T00:59:58.940Z,0.00
2018-02-22T01:00:58.844Z,0.00
2018-02-22T01:01:58.768Z,0.00
2018-02-22T01:02:58.681Z,0.00
2018-02-22T01:03:58.596Z,0.00
2018-02-22T01:04:58.507Z,0.00
2018-02-22T01:05:58.434Z,0.00
2018-02-22T01:06:58.340Z,0.00
2018-02-22T01:07:58.264Z,0.00
2018-02-22T01:08:58.170Z,0.00
2018-02-22T01:09:58.095Z,0.00
2018-02-22T01:10:58.013Z,0.00
2018-02-22T01:11:57.928Z,0.00
2018-02-22T01:12:57.837Z,0.00
2018-02-22T01:13:57.760Z,0.00
2018-02-22T01:14:57.668Z,0.00
2018-02-22T01:15:57.596Z,0.00
2018-02-22T01:16:57.500Z,0.00
2018-02-22T01:17:57.424Z,0.00
2018-02-22T01:18:57.328Z,0.00
2018-02-22T01:19:57.256Z,0.00
2018-02-22T01:20:57.164Z,0.00
2018-02-22T01:21:57.085Z,0.00
2018-02-22T01:22:56.996Z,0.00
2018-02-22T01:23:56.918Z,0.00
2018-02-22T01:24:56.826Z,0.00
2018-02-22T01:25:56.753Z,0.00
2018-02-22T01:26:56.658Z,0.00
2018-02-22T01:27:56.584Z,0.00
2018-02-22T01:28:56.490Z,0.00
2018-02-22T01:29:56.418Z,0.00
2018-02-22T01:30:56.329Z,0.00
2018-02-22T01:31:56.240Z,0.00
2018-02-22T01:32:56.162Z,0.00
2018-02-22T01:33:56.073Z,0.00
2018-02-22T01:34:55.991Z,0.00
2018-02-22T01:35:55.902Z,0.00
2018-02-22T01:36:55.824Z,0.00
2018-02-22T01:37:55.729Z,0.00
2018-02-22T01:38:55.656Z,0.00
2018-02-22T01:39:55.567Z,0.00
2018-02-22T01:40:55.487Z,0.00
2018-02-22T01:41:55.397Z,0.00
2018-02-22T01:42:55.322Z,0.00
2018-02-22T01:43:55.228Z,0.00
2018-02-22T01:44:55.150Z,0.00
2018-02-22T01:45:55.061Z,0.00
2018-02-22T01:46:54.981Z,0.00
2018-02-22T01:47:54.891Z,0.00
2018-02-22T01:48:54.824Z,0.00
2018-02-22T01:49:54.722Z,0.00
2018-02-22T01:50:54.648Z,0.00
2018-02-22T01:51:54.555Z,0.00
2018-02-22T01:52:54.478Z,0.00
2018-02-22T01:53:54.386Z,0.00
2018-02-22T01:54:54.307Z,0.00
2018-02-22T01:55:54.219Z,0.00
2018-02-22T01:56:54.141Z,0.00
2018-02-22T01:57:54.055Z,0.00
2018-02-22T01:58:53.974Z,0.00
2018-02-22T01:59:53.901Z,0.00
2018-02-22T02:00:53.804Z,0.00
2018-02-22T02:01:53.713Z,0.00
2018-02-22T02:02:53.638Z,0.00
2018-02-22T02:03:53.547Z,0.00
2018-02-22T02:04:53.468Z,0.00
2018-02-22T02:05:53.372Z,0.00
2018-02-22T02:06:53.301Z,0.00
2018-02-22T02:07:53.210Z,0.00
2018-02-22T02:08:53.131Z,0.00
2018-02-22T02:09:53.038Z,0.00
2018-02-22T02:10:52.961Z,0.00
2018-02-22T02:11:52.870Z,0.00
2018-02-22T02:12:52.792Z,0.00
2018-02-22T02:13:52.701Z,0.00
2018-02-22T02:14:52.626Z,0.00
2018-02-22T02:15:52.540Z,0.00
2018-02-22T02:16:52.455Z,0.00
2018-02-22T02:17:52.366Z,0.00
2018-02-22T02:18:52.289Z,0.00
2018-02-22T02:19:52.201Z,0.00
2018-02-22T02:20:52.133Z,0.00
2018-02-22T02:21:52.027Z,0.00
2018-02-22T02:22:51.950Z,0.00
2018-02-22T02:23:51.860Z,0.00
2018-02-22T02:24:51.785Z,0.00
2018-02-22T02:25:51.689Z,0.00
2018-02-22T02:26:51.613Z,0.00
2018-02-22T02:27:51.522Z,0.00
2018-02-22T02:28:51.444Z,0.00
2018-02-22T02:29:51.359Z,0.00
2018-02-22T02:30:51.279Z,0.00
2018-02-22T02:31:51.184Z,0.00
2018-02-22T02:32:51.112Z,0.00
2018-02-22T02:33:51.015Z,0.00
2018-02-22T02:34:50.940Z,0.00
2018-02-22T02:35:50.849Z,0.00
2018-02-22T02:36:50.770Z,0.00
2018-02-22T02:37:50.677Z,0.00
2018-02-22T02:38:50.603Z,0.00
2018-02-22T02:39:50.511Z,0.00
2018-02-22T02:40:50.430Z,0.00
2018-02-22T02:41:50.342Z,0.00
2018-02-22T02:42:50.265Z,0.00
2018-02-22T02:43:50.176Z,0.00
2018-02-22T02:44:50.099Z,0.00
2018-02-22T02:45:50.007Z,0.00
2018-02-22T02:46:49.934Z,0.00
2018-02-22T02:47:49.848Z,0.00
2018-02-22T02:48:49.761Z,0.00
2018-02-22T02:49:49.667Z,0.00
2018-02-22T02:50:49.592Z,0.00
2018-02-22T02:51:49.502Z,0.00
2018-02-22T02:52:49.422Z,0.00
2018-02-22T02:53:49.332Z,0.00
2018-02-22T02:54:49.255Z,0.00
2018-02-22T02:55:49.162Z,0.00
2018-02-22T02:56:49.086Z,0.00
2018-02-22T02:57:48.996Z,0.00
2018-02-22T02:58:48.922Z,0.00
2018-02-22T02:59:48.828Z,0.00
2018-02-22T03:00:48.747Z,0.00
2018-02-22T03:01:48.656Z,0.00
2018-02-22T03:02:48.580Z,0.00
2018-02-22T03:03:48.488Z,0.00
2018-02-22T03:04:48.421Z,0.00
2018-02-22T03:05:48.324Z,0.00
2018-02-22T03:06:48.244Z,0.00
2018-02-22T03:07:48.148Z,0.00
2018-02-22T03:08:48.074Z,0.00
2018-02-22T03:09:47.983Z,0.00
2018-02-22T03:10:47.905Z,0.00
2018-02-22T03:11:47.813Z,0.00
2018-02-22T03:12:47.736Z,0.00
2018-02-22T03:13:47.644Z,0.00
2018-02-22T03:14:47.573Z,0.00
2018-02-22T03:15:47.475Z,0.00
2018-02-22T03:16:47.398Z,0.00
2018-02-22T03:17:47.307Z,0.00
2018-02-22T03:18:47.231Z,0.00
2018-02-22T03:19:47.140Z,0.00
2018-02-22T03:20:47.061Z,0.00
2018-02-22T03:21:46.970Z,0.00
2018-02-22T03:22:46.894Z,0.00
2018-02-22T03:23:46.799Z,0.00
2018-02-22T03:24:46.719Z,0.00
2018-02-22T03:25:46.630Z,0.00
2018-02-22T03:26:46.553Z,0.00
2018-02-22T03:27:46.463Z,0.00
2018-02-22T03:28:46.392Z,0.00
2018-02-22T03:29:46.294Z,0.00
2018-02-22T03:30:46.219Z,0.00
2018-02-22T03:31:46.124Z,0.00
2018-02-22T03:32:46.046Z,0.00
2018-02-22T03:33:45.955Z,0.00
2018-02-22T03:34:45.882Z,0.00
2018-02-22T03:35:45.788Z,0.00
2018-02-22T03:36:45.711Z,0.00
2018-02-22T03:37:45.617Z,0.00
2018-02-22T03:38:45.541Z,0.00
2018-02-22T03:39:45.452Z,0.00
2018-02-22T03:40:45.371Z,0.00
2018-02-22T03:41:45.278Z,0.00
2018-02-22T03:42:45.209Z,0.00
2018-02-22T03:43:45.109Z,0.00
2018-02-22T03:44:45.037Z,0.00
2018-02-22T03:45:44.943Z,0.00
2018-02-22T03:46:44.862Z,0.00
2018-02-22T03:47:44.776Z,0.00
2018-02-22T03:48:44.699Z,0.00
2018-02-22T03:49:44.611Z,0.00
2018-02-22T03:50:44.528Z,0.00
2018-02-22T03:51:44.432Z,0.00
2018-02-22T03:52:44.358Z,0.00
2018-02-22T03:53:44.267Z,0.00
2018-02-22T03:54:44.187Z,0.00
2018-02-22T03:55:44.097Z,0.00
2018-02-22T03:56:44.018Z,0.00
2018-02-22T03:57:43.929Z,0.00
2018-02-22T03:58:43.856Z,0.00
2018-02-22T03:59:43.762Z,0.00
2018-02-22T04:00:43.684Z,0.00
2018-02-22T04:01:43.621Z,0.00
2018-02-22T04:02:43.515Z,0.00
2018-02-22T04:03:43.423Z,0.00
2018-02-22T04:04:43.344Z,0.00
2018-02-22T04:05:43.253Z,0.00
2018-02-22T04:06:43.176Z,0.00
2018-02-22T04:07:43.089Z,0.00
2018-02-22T04:08:43.005Z,0.00
2018-02-22T04:09:42.916Z,0.00
2018-02-22T04:10:42.839Z,0.00
2018-02-22T04:11:42.747Z,0.00
2018-02-22T04:12:42.667Z,0.00
2018-02-22T04:13:42.580Z,0.00
2018-02-22T04:14:42.504Z,0.00
2018-02-22T04:15:42.407Z,0.00
2018-02-22T04:16:42.330Z,0.00
2018-02-22T04:17:42.237Z,0.00
2018-02-22T04:18:42.160Z,0.00
2018-02-22T04:19:42.067Z,0.00
2018-02-22T04:20:41.992Z,0.00
2018-02-22T04:21:41.897Z,0.00
2018-02-22T04:22:41.825Z,0.00
2018-02-22T04:23:41.731Z,0.00
2018-02-22T04:24:41.655Z,0.00
2018-02-22T04:25:41.561Z,0.00
2018-02-22T04:26:41.486Z,0.00
2018-02-22T04:27:41.393Z,0.00
2018-02-22T04:28:41.316Z,0.00
2018-02-22T04:29:41.225Z,0.00
2018-02-22T04:30:41.148Z,0.00
2018-02-22T04:31:41.054Z,0.00
2018-02-22T04:32:40.976Z,0.00
2018-02-22T04:33:40.884Z,0.00
2018-02-22T04:34:40.810Z,0.00
2018-02-22T04:35:40.717Z,0.00
2018-02-22T04:36:40.641Z,0.00
2018-02-22T04:37:40.543Z,0.00
2018-02-22T04:38:40.464Z,0.00
2018-02-22T04:39:40.378Z,0.00
2018-02-22T04:40:40.300Z,0.00
2018-02-22T04:41:40.209Z,0.00
2018-02-22T04:42:40.130Z,0.00
2018-02-22T04:43:40.041Z,0.00
2018-02-22T04:44:39.960Z,0.00
2018-02-22T04:45:39.869Z,0.00
2018-02-22T04:46:39.789Z,0.00
2018-02-22T04:47:39.702Z,0.00
2018-02-22T04:48:39.633Z,0.00
2018-02-22T04:49:39.531Z,0.00
2018-02-22T04:50:39.450Z,0.00
2018-02-22T04:51:39.363Z,0.00
2018-02-22T04:52:39.288Z,0.00
2018-02-22T04:53:39.192Z,0.00
2018-02-22T04:54:39.116Z,0.00
2018-02-22T04:55:39.021Z,0.00
2018-02-22T04:56:38.948Z,0.00
2018-02-22T04:57:38.855Z,0.00
2018-02-22T04:58:38.774Z,0.00
2018-02-22T04:59:38.686Z,0.00
2018-02-22T05:00:38.609Z,0.00
2018-02-22T05:01:38.518Z,0.00
2018-02-22T05:02:38.445Z,0.00
2018-02-22T05:03:38.348Z,0.00
2018-02-22T05:04:38.269Z,0.00
2018-02-22T05:05:38.177Z,0.00
2018-02-22T05:06:38.102Z,0.00
2018-02-22T05:07:38.008Z,0.00
2018-02-22T05:08:37.929Z,0.00
2018-02-22T05:09:37.838Z,0.00
2018-02-22T05:10:37.760Z,0.00
2018-02-22T05:11:37.670Z,0.00
2018-02-22T05:12:37.592Z,0.00
2018-02-22T05:13:37.499Z,0.00
2018-02-22T05:14:37.426Z,0.00
2018-02-22T05:15:37.330Z,0.00
2018-02-22T05:16:37.253Z,0.00
2018-02-22T05:17:37.163Z,0.00
2018-02-22T05:18:37.084Z,0.00
2018-02-22T05:19:36.992Z,0.00
2018-02-22T05:20:36.913Z,0.00
2018-02-22T05:21:36.821Z,0.00
2018-02-22T05:22:36.740Z,0.00
2018-02-22T05:23:36.653Z,0.00
2018-02-22T05:24:36.576Z,0.00
2018-02-22T05:25:36.482Z,0.00
2018-02-22T05:26:36.406Z,0.00
2018-02-22T05:27:36.313Z,0.00
2018-02-22T05:28:36.242Z,0.00
2018-02-22T05:29:36.151Z,0.00
2018-02-22T05:30:36.069Z,0.00
2018-02-22T05:31:35.975Z,0.00
2018-02-22T05:32:35.908Z,0.00
2018-02-22T05:33:35.806Z,0.00
2018-02-22T05:34:35.821Z,0.00
2018-02-22T05:35:35.636Z,0.00
2018-02-22T05:36:35.627Z,0.00
2018-02-22T05:37:35.472Z,0.00
2018-02-22T05:38:35.391Z,0.00
2018-02-22T05:39:35.295Z,0.00
2018-02-22T05:40:35.244Z,0.00
2018-02-22T05:41:35.128Z,0.00
2018-02-22T05:42:35.153Z,0.00
2018-02-22T05:43:34.959Z,0.00
2018-02-22T05:44:34.882Z,0.00
2018-02-22T05:45:34.790Z,0.00
2018-02-22T05:46:34.773Z,0.00
2018-02-22T05:47:34.620Z,0.00
2018-02-22T05:48:34.537Z,0.00
2018-02-22T05:49:34.453Z,0.00
2018-02-22T05:50:34.387Z,0.00
2018-02-22T05:51:34.281Z,0.00
2018-02-22T05:52:34.298Z,0.00
2018-02-22T05:53:34.112Z,4.00
2018-02-22T05:54:34.104Z,0.00
2018-02-22T05:55:33.942Z,0.00
2018-02-22T05:56:33.859Z,4.00
2018-02-22T05:57:33.768Z,0.00
2018-02-22T06:00:01.871Z,0.00
2018-02-22T06:01:01.770Z,4.00
2018-02-22T06:02:55.587Z,4.00
2018-02-22T06:03:55.492Z,4.00
2018-02-22T06:04:55.402Z,4.00
2018-02-22T06:05:55.379Z,4.00
2018-02-22T06:06:55.236Z,8.00
2018-02-22T06:07:55.185Z,8.00
2018-02-22T06:08:55.061Z,8.00
2018-02-22T06:09:57.037Z,12.00
2018-02-22T06:10:54.895Z,12.00
2018-02-22T06:11:54.903Z,16.00
2018-02-22T06:12:54.725Z,16.00
2018-02-22T06:13:54.715Z,12.00
2018-02-22T06:14:54.554Z,16.00
2018-02-22T06:15:54.475Z,20.00
2018-02-22T06:16:54.387Z,20.00
2018-02-22T06:17:54.307Z,24.00
2018-02-22T06:18:54.214Z,24.00
2018-02-22T06:19:54.136Z,28.00
2018-02-22T06:20:54.043Z,24.00
2018-02-22T06:21:53.968Z,32.00
2018-02-22T06:22:53.874Z,32.00
2018-02-22T06:23:53.795Z,36.00
2018-02-22T06:24:53.704Z,40.00
2018-02-22T06:25:53.628Z,44.00
2018-02-22T06:26:53.534Z,44.00
2018-02-22T06:27:53.459Z,52.00
2018-02-22T06:28:53.365Z,56.00
2018-02-22T06:29:53.287Z,60.00
2018-02-22T06:30:53.196Z,64.00
2018-02-22T06:31:53.122Z,64.00
2018-02-22T06:32:53.032Z,68.00
2018-02-22T06:33:52.954Z,68.00
2018-02-22T06:34:52.858Z,68.00
2018-02-22T06:35:52.779Z,72.00
2018-02-22T06:36:52.684Z,72.00
2018-02-22T06:37:52.617Z,80.00
2018-02-22T06:38:52.519Z,84.00
2018-02-22T06:39:52.441Z,92.00
2018-02-22T06:40:52.348Z,92.00
2018-02-22T06:41:52.273Z,96.00
2018-02-22T06:42:52.179Z,96.00
2018-02-22T06:43:52.098Z,104.00
2018-02-22T06:44:52.009Z,112.00
2018-02-22T06:45:51.939Z,116.00
2018-02-22T06:46:51.839Z,120.00
2018-02-22T06:47:51.760Z,128.00
2018-02-22T06:48:51.672Z,132.00
2018-02-22T06:49:51.593Z,140.00
2018-02-22T06:50:51.502Z,144.00
2018-02-22T06:51:51.424Z,148.00
2018-02-22T06:52:51.332Z,156.00
2018-02-22T06:53:51.256Z,168.00
2018-02-22T06:54:51.161Z,180.00
2018-02-22T06:55:51.082Z,192.00
2018-02-22T06:56:50.991Z,196.00
2018-02-22T06:57:50.915Z,208.00
2018-02-22T06:58:50.823Z,216.00
2018-02-22T06:59:50.744Z,224.00
2018-02-22T07:00:50.656Z,232.00
2018-02-22T07:01:50.576Z,240.00
2018-02-22T07:02:50.481Z,248.00
2018-02-22T07:03:50.409Z,256.00
2018-02-22T07:04:50.315Z,268.00
2018-02-22T07:05:50.236Z,276.00
2018-02-22T07:06:50.141Z,280.00
2018-02-22T07:07:50.066Z,296.00
2018-02-22T07:08:49.974Z,296.00
2018-02-22T07:09:49.900Z,300.00
2018-02-22T07:10:49.807Z,300.00
2018-02-22T07:11:49.726Z,300.00
2018-02-22T07:12:49.636Z,300.00
2018-02-22T07:13:49.559Z,292.00
2018-02-22T07:14:49.471Z,288.00
2018-02-22T07:15:49.390Z,288.00
2018-02-22T07:16:49.298Z,296.00
2018-02-22T07:17:49.220Z,316.00
2018-02-22T07:18:49.133Z,332.00
2018-02-22T07:19:49.053Z,340.00
2018-02-22T07:20:48.958Z,348.00
2018-02-22T07:21:48.885Z,372.00
2018-02-22T07:22:48.792Z,400.00
2018-02-22T07:23:48.717Z,420.00
2018-02-22T07:24:48.620Z,428.00
2018-02-22T07:25:48.545Z,424.00
2018-02-22T07:26:48.457Z,448.00
2018-02-22T07:27:48.375Z,468.00
2018-02-22T07:28:48.309Z,488.00
2018-02-22T07:29:48.212Z,492.00
2018-02-22T07:30:48.115Z,520.00
2018-02-22T07:31:48.037Z,576.00
2018-02-22T07:32:47.947Z,612.00
2018-02-22T07:33:47.873Z,620.00
2018-02-22T07:34:47.780Z,652.00
2018-02-22T07:35:47.701Z,664.00
2018-02-22T07:36:47.608Z,668.00
2018-02-22T07:37:47.533Z,692.00
2018-02-22T07:38:47.442Z,712.00
2018-02-22T07:39:47.360Z,740.00
2018-02-22T07:40:47.273Z,744.00
2018-02-22T07:41:47.198Z,760.00
2018-02-22T07:42:47.104Z,780.00
2018-02-22T07:43:47.027Z,804.00
2018-02-22T07:44:46.938Z,812.00
2018-02-22T07:45:46.858Z,824.00
2018-02-22T07:46:46.768Z,860.00
2018-02-22T07:47:46.693Z,876.00
2018-02-22T07:48:46.598Z,880.00
2018-02-22T07:49:46.523Z,888.00
2018-02-22T07:50:46.442Z,932.00
2018-02-22T07:51:46.357Z,900.00
2018-02-22T07:52:46.269Z,692.00
2018-02-22T07:53:46.194Z,564.00
2018-02-22T07:54:46.100Z,524.00
2018-02-22T07:55:46.023Z,436.00
2018-02-22T07:56:45.931Z,376.00
2018-02-22T07:57:45.860Z,352.00
2018-02-22T07:58:45.764Z,348.00
2018-02-22T07:59:45.688Z,356.00
2018-02-22T08:00:45.596Z,396.00
2018-02-22T08:01:45.523Z,440.00
2018-02-22T08:02:45.432Z,512.00
2018-02-22T08:03:45.354Z,480.00
2018-02-22T08:04:45.261Z,496.00
2018-02-22T08:05:45.188Z,556.00
2018-02-22T08:06:45.097Z,972.00
2018-02-22T08:07:45.021Z,884.00
2018-02-22T08:08:44.929Z,796.00
2018-02-22T08:09:44.855Z,740.00
2018-02-22T08:10:44.762Z,756.00
2018-02-22T08:11:44.687Z,756.00
2018-02-22T08:12:44.595Z,812.00
2018-02-22T08:13:44.522Z,836.00
2018-02-22T08:14:44.430Z,856.00
2018-02-22T08:15:44.354Z,988.00
2018-02-22T08:16:44.257Z,1180.00
2018-02-22T08:17:44.185Z,948.00
2018-02-22T08:18:44.100Z,1216.00
2018-02-22T08:19:44.019Z,1372.00
2018-02-22T08:20:43.930Z,1432.00
2018-02-22T08:21:43.853Z,2168.00
2018-02-22T08:22:43.764Z,2220.00
2018-02-22T08:23:43.685Z,2084.00
2018-02-22T08:24:43.594Z,2108.00
2018-02-22T08:25:43.520Z,1084.00
2018-02-22T08:26:43.431Z,1144.00
2018-02-22T08:27:43.355Z,1700.00
2018-02-22T08:28:43.265Z,1996.00
2018-02-22T08:29:43.184Z,1668.00
2018-02-22T08:30:43.097Z,2080.00
2018-02-22T08:31:43.022Z,1500.00
2018-02-22T08:32:42.934Z,1164.00
2018-02-22T08:33:42.856Z,1556.00
2018-02-22T08:34:42.768Z,1232.00
2018-02-22T08:35:42.695Z,1068.00
2018-02-22T08:36:42.605Z,1080.00
2018-02-22T08:37:42.527Z,1252.00
2018-02-22T08:38:42.438Z,1140.00
2018-02-22T08:39:42.361Z,1392.00
2018-02-22T08:40:42.272Z,1216.00
2018-02-22T08:41:42.198Z,1068.00
2018-02-22T08:42:42.115Z,1008.00
2018-02-22T08:43:42.031Z,1260.00
2018-02-22T08:44:41.973Z,908.00
2018-02-22T08:45:41.865Z,916.00
2018-02-22T08:46:41.776Z,924.00
2018-02-22T08:47:41.702Z,916.00
2018-02-22T08:48:41.611Z,1092.00
2018-02-22T08:49:41.537Z,844.00
2018-02-22T08:50:41.448Z,888.00
2018-02-22T08:51:41.370Z,756.00
2018-02-22T08:52:41.282Z,724.00
2018-02-22T08:53:41.208Z,732.00
2018-02-22T08:54:41.123Z,772.00
2018-02-22T08:55:41.044Z,852.00
2018-02-22T08:56:40.953Z,876.00
2018-02-22T08:57:40.879Z,884.00
2018-02-22T08:58:40.796Z,884.00
2018-02-22T08:59:40.712Z,876.00
2018-02-22T09:00:40.619Z,868.00
2018-02-22T09:01:40.551Z,888.00
2018-02-22T09:02:40.457Z,928.00
2018-02-22T09:03:40.381Z,940.00
2018-02-22T09:04:40.293Z,952.00
2018-02-22T09:05:40.217Z,972.00
2018-02-22T09:06:40.133Z,996.00
2018-02-22T09:07:40.049Z,1008.00
2018-02-22T09:08:39.962Z,1104.00
2018-02-22T09:09:39.887Z,1020.00
2018-02-22T09:10:39.800Z,968.00
2018-02-22T09:11:39.721Z,976.00
2018-02-22T09:12:39.631Z,1040.00
2018-02-22T09:13:39.556Z,972.00
2018-02-22T09:14:39.469Z,1076.00
2018-02-22T09:15:39.402Z,1196.00
2018-02-22T09:16:39.303Z,1076.00
2018-02-22T09:17:39.234Z,1228.00
2018-02-22T09:18:39.138Z,1212.00
2018-02-22T09:19:39.062Z,1000.00
2018-02-22T09:20:39.607Z,936.00
2018-02-22T09:21:38.895Z,1036.00
2018-02-22T09:22:38.806Z,1060.00
2018-02-22T09:23:38.735Z,1196.00
2018-02-22T09:24:38.643Z,1052.00
2018-02-22T09:25:38.565Z,1100.00
2018-02-22T09:26:38.475Z,1312.00
2018-02-22T09:27:38.398Z,1276.00
2018-02-22T09:28:38.311Z,1292.00
2018-02-22T09:29:38.232Z,1280.00
2018-02-22T09:30:38.144Z,1464.00
2018-02-22T09:31:38.068Z,1420.00
2018-02-22T09:32:37.982Z,1784.00
2018-02-22T09:33:37.902Z,1364.00
2018-02-22T09:34:37.812Z,1472.00
2018-02-22T09:35:37.736Z,1876.00
2018-02-22T09:36:37.676Z,2412.00
2018-02-22T09:37:37.579Z,1872.00
2018-02-22T09:38:37.484Z,1860.00
2018-02-22T09:39:37.408Z,2816.00
2018-02-22T09:40:37.317Z,2708.00
2018-02-22T09:41:37.247Z,2704.00
2018-02-22T09:42:37.156Z,2548.00
2018-02-22T09:43:37.080Z,2368.00
2018-02-22T09:44:36.988Z,2364.00
2018-02-22T09:45:36.914Z,3048.00
2018-02-22T09:46:36.826Z,3088.00
2018-02-22T09:47:36.748Z,3108.00
2018-02-22T09:48:36.659Z,3136.00
2018-02-22T09:49:36.587Z,3080.00
2018-02-22T09:50:36.495Z,2316.00
2018-02-22T09:51:36.419Z,1740.00
2018-02-22T09:52:36.330Z,2060.00
2018-02-22T09:53:36.255Z,2200.00
2018-02-22T09:54:36.167Z,1524.00
2018-02-22T09:55:36.095Z,1492.00
2018-02-22T09:56:36.006Z,1580.00
2018-02-22T09:57:35.930Z,2112.00
2018-02-22T09:58:35.841Z,1624.00
2018-02-22T09:59:35.765Z,2364.00
2018-02-22T10:00:35.679Z,1996.00
2018-02-22T10:01:35.596Z,2004.00
2018-02-22T10:02:35.605Z,1536.00
2018-02-22T10:03:35.432Z,1616.00
2018-02-22T10:04:35.414Z,1476.00
2018-02-22T10:05:35.272Z,1580.00
2018-02-22T10:06:35.225Z,1688.00
2018-02-22T10:07:35.103Z,2300.00
2018-02-22T10:08:35.138Z,2500.00
2018-02-22T10:09:34.945Z,2508.00
2018-02-22T10:10:34.871Z,3724.00
2018-02-22T10:11:34.780Z,3608.00
2018-02-22T10:12:34.752Z,3812.00
2018-02-22T10:13:34.620Z,2212.00
2018-02-22T10:14:34.569Z,3564.00
2018-02-22T10:15:34.453Z,3540.00
2018-02-22T10:16:34.474Z,3552.00
2018-02-22T10:17:34.293Z,2892.00
2018-02-22T10:18:34.284Z,2448.00
2018-02-22T10:19:34.131Z,1488.00
2018-02-22T10:20:34.088Z,3552.00
2018-02-22T10:21:33.968Z,3224.00
2018-02-22T10:22:34.002Z,3080.00
2018-02-22T10:23:33.806Z,3540.00
2018-02-22T10:24:33.813Z,3560.00
2018-02-22T10:25:33.644Z,1280.00
2018-02-22T10:26:33.621Z,3508.00
2018-02-22T10:27:33.482Z,1276.00
2018-02-22T10:28:33.432Z,1848.00
2018-02-22T10:29:33.322Z,1196.00
2018-02-22T10:30:33.343Z,1320.00
2018-02-22T10:31:33.163Z,3208.00
2018-02-22T10:32:33.152Z,2028.00
2018-02-22T10:33:32.999Z,3648.00
2018-02-22T10:34:32.961Z,3572.00
2018-02-22T10:35:32.836Z,2600.00
2018-02-22T10:36:32.873Z,3412.00
2018-02-22T10:37:32.676Z,3348.00
2018-02-22T10:38:32.675Z,3428.00
2018-02-22T10:39:32.512Z,1336.00
2018-02-22T10:40:32.497Z,2064.00
2018-02-22T10:41:32.357Z,3264.00
2018-02-22T10:42:32.302Z,2520.00
2018-02-22T10:43:32.190Z,1288.00
2018-02-22T10:44:32.210Z,3236.00
2018-02-22T10:45:32.032Z,3328.00
2018-02-22T10:46:32.019Z,3144.00
2018-02-22T10:47:31.871Z,3232.00
2018-02-22T10:48:31.829Z,3200.00
2018-02-22T10:49:31.708Z,3072.00
2018-02-22T10:50:31.739Z,2924.00
2018-02-22T10:51:31.554Z,2996.00
2018-02-22T10:52:31.552Z,2992.00
2018-02-22T10:53:31.388Z,3056.00
2018-02-22T10:54:31.357Z,3024.00
2018-02-22T10:55:31.230Z,3112.00
2018-02-22T10:56:31.275Z,3236.00
2018-02-22T10:57:31.069Z,3192.00
2018-02-22T10:58:31.076Z,3244.00
2018-02-22T10:59:30.908Z,3124.00
2018-02-22T11:00:30.891Z,3236.00
2018-02-22T11:01:30.745Z,3248.00
2018-02-22T11:02:30.695Z,3212.00
2018-02-22T11:03:30.592Z,3120.00
2018-02-22T11:04:30.606Z,3072.00
2018-02-22T11:05:30.428Z,3160.00
2018-02-22T11:06:30.414Z,3208.00
2018-02-22T11:07:30.275Z,3244.00
2018-02-22T11:08:30.223Z,3236.00
2018-02-22T11:09:30.114Z,3196.00
2018-02-22T11:10:30.131Z,3176.00
2018-02-22T11:11:29.947Z,3128.00
2018-02-22T11:12:29.944Z,3220.00
2018-02-22T11:13:29.792Z,3188.00
2018-02-22T11:14:29.753Z,3168.00
2018-02-22T11:15:29.629Z,3060.00
2018-02-22T11:16:29.664Z,2912.00
2018-02-22T11:17:29.468Z,2920.00
2018-02-22T11:18:29.474Z,2604.00
2018-02-22T11:19:29.309Z,2216.00
2018-02-22T11:20:29.283Z,2800.00
2018-02-22T11:21:29.149Z,3060.00
2018-02-22T11:22:29.094Z,3196.00
2018-02-22T11:23:28.992Z,3152.00
2018-02-22T11:24:29.004Z,3064.00
2018-02-22T11:25:28.832Z,3092.00
2018-02-22T11:26:28.811Z,3020.00
2018-02-22T11:27:28.672Z,3128.00
2018-02-22T11:28:28.622Z,3112.00
2018-02-22T11:29:28.515Z,3108.00
2018-02-22T11:30:28.532Z,3076.00
2018-02-22T11:31:28.354Z,3072.00
2018-02-22T11:32:28.338Z,2992.00
2018-02-22T11:33:28.194Z,3020.00
2018-02-22T11:34:28.153Z,3008.00
2018-02-22T11:35:28.038Z,3004.00
2018-02-22T11:36:28.062Z,3004.00
2018-02-22T11:37:27.879Z,2980.00
2018-02-22T11:38:27.872Z,2940.00
2018-02-22T11:39:27.718Z,2960.00
2018-02-22T11:40:27.686Z,2892.00
2018-02-22T11:41:27.556Z,2872.00
2018-02-22T11:42:27.590Z,2772.00
2018-02-22T11:43:27.402Z,2864.00
2018-02-22T11:44:27.400Z,2928.00
2018-02-22T11:45:27.243Z,2868.00
2018-02-22T11:46:27.210Z,2924.00
2018-02-22T11:47:27.084Z,2888.00
2018-02-22T11:48:27.120Z,2872.00
2018-02-22T11:49:26.930Z,2856.00
2018-02-22T11:50:26.929Z,2864.00
2018-02-22T11:51:26.772Z,2828.00
2018-02-22T11:52:26.740Z,2832.00
2018-02-22T11:53:26.602Z,2832.00
2018-02-22T11:54:26.650Z,2824.00
2018-02-22T11:55:26.448Z,2824.00
2018-02-22T11:56:26.455Z,2440.00
2018-02-22T11:57:26.293Z,2772.00
2018-02-22T11:58:26.267Z,2776.00
2018-02-22T11:59:26.137Z,2760.00
2018-02-22T12:00:26.081Z,2744.00
2018-02-22T12:01:25.973Z,2740.00
2018-02-22T12:02:25.988Z,2740.00
2018-02-22T12:03:25.813Z,2724.00
2018-02-22T12:04:25.798Z,2708.00
2018-02-22T12:05:25.658Z,2728.00
2018-02-22T12:06:25.606Z,2716.00
2018-02-22T12:07:25.496Z,2672.00
2018-02-22T12:08:25.517Z,2660.00
2018-02-22T12:09:25.339Z,2672.00
2018-02-22T12:10:25.328Z,2664.00
2018-02-22T12:11:25.180Z,2680.00
2018-02-22T12:12:25.135Z,2676.00
2018-02-22T12:13:25.023Z,2652.00
2018-02-22T12:14:25.049Z,2648.00
2018-02-22T12:15:24.874Z,2644.00
2018-02-22T12:16:24.858Z,2632.00
2018-02-22T12:17:24.702Z,2660.00
2018-02-22T12:18:24.665Z,2660.00
2018-02-22T12:19:24.554Z,2632.00
2018-02-22T12:20:24.579Z,2644.00
2018-02-22T12:21:24.391Z,2620.00
2018-02-22T12:22:24.386Z,2600.00
2018-02-22T12:23:24.229Z,2588.00
2018-02-22T12:24:24.299Z,2612.00
2018-02-22T12:25:24.072Z,2572.00
2018-02-22T12:26:23.997Z,2536.00
2018-02-22T12:27:24.011Z,2556.00
2018-02-22T12:28:23.836Z,2516.00
2018-02-22T12:29:23.816Z,2524.00
2018-02-22T12:30:23.673Z,2468.00
2018-02-22T12:31:23.639Z,2472.00
2018-02-22T12:32:23.516Z,2492.00
2018-02-22T12:33:23.547Z,2528.00
2018-02-22T12:34:23.358Z,2488.00
2018-02-22T12:35:23.349Z,2432.00
2018-02-22T12:36:23.200Z,2460.00
2018-02-22T12:37:23.156Z,2452.00
2018-02-22T12:38:23.040Z,2404.00
2018-02-22T12:39:23.066Z,2388.00
2018-02-22T12:40:22.882Z,2396.00
2018-02-22T12:41:22.878Z,2408.00
2018-02-22T12:42:22.723Z,2372.00
2018-02-22T12:43:22.686Z,2364.00
2018-02-22T12:44:22.566Z,2364.00
2018-02-22T12:45:22.601Z,2388.00